createdAt,value
2017-12-25T00:00:28.042Z,12.29
2017-12-25T00:01:08.651Z,12.25
2017-12-25T00:01:48.791Z,12.26
2017-12-25T00:02:29.285Z,12.26
2017-12-25T00:03:09.621Z,12.3
2017-12-25T00:03:50.095Z,12.29
2017-12-25T00:04:30.442Z,12.19
2017-12-25T00:05:10.959Z,12.11
2017-12-25T00:05:51.402Z,12.16
2017-12-25T00:06:31.832Z,12.16
2017-12-25T00:07:12.250Z,12.13
2017-12-25T00:07:52.632Z,12.07
2017-12-25T00:08:33.443Z,12.18
2017-12-25T00:09:13.843Z,12.3
2017-12-25T00:09:54.264Z,12.25
2017-12-25T00:10:34.702Z,12.19
2017-12-25T00:11:17.806Z,12.36
2017-12-25T00:11:58.203Z,12.29
2017-12-25T00:12:38.776Z,12.31
2017-12-25T00:13:19.618Z,12.31
2017-12-25T00:14:00.967Z,12.37
2017-12-25T00:14:42.089Z,12.29
2017-12-25T00:15:24.052Z,12.25
2017-12-25T00:16:05.028Z,12.23
2017-12-25T00:16:45.458Z,12.25
2017-12-25T00:17:25.805Z,12.29
2017-12-25T00:18:06.405Z,12.3
2017-12-25T00:18:47.501Z,12.16
2017-12-25T00:19:28.338Z,12.26
2017-12-25T00:20:08.619Z,12.21
2017-12-25T00:20:49.509Z,12.23
2017-12-25T00:21:29.791Z,12.26
2017-12-25T00:22:10.565Z,12.19
2017-12-25T00:22:50.881Z,12.23
2017-12-25T00:23:32.158Z,12.33
2017-12-25T00:24:12.611Z,12.11
2017-12-25T00:24:53.035Z,12.12
2017-12-25T00:25:34.057Z,12.15
2017-12-25T00:26:15.724Z,12
2017-12-25T00:26:56.001Z,12.07
2017-12-25T00:27:36.308Z,12.07
2017-12-25T00:28:16.750Z,11.87
2017-12-25T00:28:58.342Z,12.05
2017-12-25T00:29:40.157Z,11.96
2017-12-25T00:30:20.201Z,11.88
2017-12-25T00:32:00.142Z,11.96
2017-12-25T00:32:42.255Z,12
2017-12-25T00:33:22.157Z,11.93
2017-12-25T00:34:02.782Z,11.93
2017-12-25T00:34:43.203Z,12.05
2017-12-25T00:35:24.360Z,11.94
2017-12-25T00:36:04.494Z,12.11
2017-12-25T00:36:45.120Z,12.15
2017-12-25T00:37:26.520Z,12.11
2017-12-25T00:38:06.946Z,12.31
2017-12-25T00:38:47.344Z,12.21
2017-12-25T00:39:27.758Z,12.16
2017-12-25T00:40:08.332Z,12.12
2017-12-25T00:40:49.030Z,12.11
2017-12-25T00:41:29.523Z,11.97
2017-12-25T00:43:26.587Z,11.93
2017-12-25T00:45:28.849Z,12.08
2017-12-25T00:46:07.684Z,12.13
2017-12-25T00:46:49.038Z,12.01
2017-12-25T00:47:29.440Z,12.13
2017-12-25T00:48:09.869Z,12.19
2017-12-25T00:48:50.267Z,12.15
2017-12-25T00:49:31.106Z,12.07
2017-12-25T00:50:12.345Z,12.11
2017-12-25T00:50:52.547Z,12.12
2017-12-25T00:51:33.219Z,12
2017-12-25T00:52:13.425Z,12.13
2017-12-25T00:52:53.962Z,12.04
2017-12-25T00:53:34.572Z,12.11
2017-12-25T00:54:14.897Z,12.13
2017-12-25T00:54:56.029Z,12.01
2017-12-25T00:55:37.696Z,12.16
2017-12-25T00:56:18.461Z,12.13
2017-12-25T00:56:58.867Z,11.97
2017-12-25T00:57:39.240Z,12.01
2017-12-25T00:58:19.671Z,11.9
2017-12-25T00:59:00.257Z,11.98
2017-12-25T00:59:41.199Z,11.96
2017-12-25T01:00:22.017Z,11.97
2017-12-25T01:01:02.510Z,11.97
2017-12-25T01:02:56.603Z,12.13
2017-12-25T01:03:38.749Z,12.12
2017-12-25T01:04:19.292Z,12.07
2017-12-25T01:05:00.205Z,12.01
2017-12-25T01:05:40.672Z,12.07
2017-12-25T01:06:21.097Z,12.12
2017-12-25T01:07:01.815Z,12.11
2017-12-25T01:07:41.909Z,11.98
2017-12-25T01:08:23.190Z,12.08
2017-12-25T01:09:03.941Z,12.05
2017-12-25T01:09:45.219Z,11.98
2017-12-25T01:10:26.052Z,12.04
2017-12-25T01:11:06.547Z,12.11
2017-12-25T01:11:47.207Z,12.04
2017-12-25T01:12:27.403Z,12.08
2017-12-25T01:13:07.826Z,12.15
2017-12-25T01:13:49.020Z,12.07
2017-12-25T01:14:29.129Z,12.11
2017-12-25T01:15:10.087Z,12.07
2017-12-25T01:15:52.450Z,11.98
2017-12-25T01:16:34.447Z,11.94
2017-12-25T01:17:15.002Z,12.04
2017-12-25T01:17:55.386Z,11.96
2017-12-25T01:19:48.470Z,11.98
2017-12-25T01:20:30.291Z,11.96
2017-12-25T01:21:10.550Z,12.04
2017-12-25T01:21:51.130Z,12.12
2017-12-25T01:22:31.760Z,12.07
2017-12-25T01:23:12.010Z,12.01
2017-12-25T01:23:52.448Z,12.13
2017-12-25T01:24:32.836Z,12.15
2017-12-25T01:25:13.257Z,12.03
2017-12-25T01:25:53.642Z,12.08
2017-12-25T01:26:34.056Z,12.05
2017-12-25T01:27:14.661Z,12.07
2017-12-25T01:27:55.302Z,12.04
2017-12-25T01:28:35.683Z,12.08
2017-12-25T01:29:16.250Z,12.11
2017-12-25T01:29:56.616Z,12.12
2017-12-25T01:30:37.019Z,12.15
2017-12-25T01:31:17.785Z,12.16
2017-12-25T01:32:01.327Z,12.11
2017-12-25T01:32:41.655Z,12.11
2017-12-25T01:33:22.097Z,11.98
2017-12-25T01:34:02.851Z,12
2017-12-25T01:34:43.293Z,11.93
2017-12-25T01:35:23.688Z,11.87
2017-12-25T01:36:05.467Z,11.79
2017-12-25T01:36:47.044Z,11.75
2017-12-25T01:37:27.824Z,11.77
2017-12-25T01:38:08.256Z,11.82
2017-12-25T01:38:48.916Z,11.88
2017-12-25T01:39:30.808Z,11.87
2017-12-25T01:41:50.417Z,11.78
2017-12-25T01:43:27.223Z,11.64
2017-12-25T01:44:11.466Z,11.56
2017-12-25T01:44:51.236Z,11.67
2017-12-25T01:45:33.227Z,11.67
2017-12-25T01:46:13.789Z,11.57
2017-12-25T01:46:54.191Z,11.64
2017-12-25T01:49:26.199Z,11.59
2017-12-25T01:50:07.110Z,11.63
2017-12-25T01:50:47.592Z,11.6
2017-12-25T01:51:27.975Z,11.69
2017-12-25T01:52:09.337Z,11.7
2017-12-25T01:52:49.543Z,11.62
2017-12-25T01:53:29.974Z,11.69
2017-12-25T01:54:10.385Z,11.66
2017-12-25T01:54:50.839Z,11.69
2017-12-25T01:55:31.670Z,11.64
2017-12-25T01:56:14.566Z,11.6
2017-12-25T01:56:54.864Z,11.64
2017-12-25T01:57:35.254Z,11.69
2017-12-25T01:58:15.708Z,11.75
2017-12-25T01:58:56.479Z,11.84
2017-12-25T01:59:36.666Z,11.93
2017-12-25T02:00:17.785Z,11.88
2017-12-25T02:00:58.136Z,11.84
2017-12-25T02:01:38.771Z,11.85
2017-12-25T02:02:20.314Z,11.82
2017-12-25T02:03:00.747Z,11.84
2017-12-25T02:03:41.116Z,11.98
2017-12-25T02:04:21.541Z,11.84
2017-12-25T02:05:01.981Z,11.88
2017-12-25T02:05:42.390Z,11.88
2017-12-25T02:06:22.787Z,11.98
2017-12-25T02:07:03.316Z,11.98
2017-12-25T02:07:43.842Z,11.97
2017-12-25T02:08:24.191Z,11.97
2017-12-25T02:09:04.565Z,11.94
2017-12-25T02:09:45.037Z,12.04
2017-12-25T02:10:25.807Z,11.96
2017-12-25T02:11:06.321Z,11.94
2017-12-25T02:11:46.733Z,11.9
2017-12-25T02:12:27.201Z,11.98
2017-12-25T02:13:07.604Z,11.98
2017-12-25T02:13:48.168Z,12.04
2017-12-25T02:14:29.076Z,12.03
2017-12-25T02:15:09.879Z,11.98
2017-12-25T02:15:50.485Z,11.96
2017-12-25T02:16:31.392Z,11.9
2017-12-25T02:17:12.526Z,11.75
2017-12-25T02:17:53.445Z,11.75
2017-12-25T02:18:34.060Z,11.81
2017-12-25T02:19:14.565Z,11.79
2017-12-25T02:19:55.344Z,11.72
2017-12-25T02:20:35.661Z,11.67
2017-12-25T02:21:16.166Z,11.77
2017-12-25T02:21:57.140Z,11.9
2017-12-25T02:22:37.541Z,11.81
2017-12-25T02:23:17.848Z,11.77
2017-12-25T02:23:58.410Z,11.81
2017-12-25T02:24:38.782Z,11.67
2017-12-25T02:25:19.777Z,11.74
2017-12-25T02:26:00.545Z,11.74
2017-12-25T02:26:41.501Z,11.77
2017-12-25T02:27:22.683Z,11.81
2017-12-25T02:28:03.081Z,11.82
2017-12-25T02:28:43.813Z,11.85
2017-12-25T02:29:23.960Z,11.87
2017-12-25T02:30:05.314Z,11.87
2017-12-25T02:30:46.397Z,11.9
2017-12-25T02:31:26.808Z,11.82
2017-12-25T02:32:07.160Z,11.79
2017-12-25T02:32:47.777Z,11.87
2017-12-25T02:34:50.629Z,11.93
2017-12-25T02:37:06.894Z,11.84
2017-12-25T02:37:47.851Z,11.81
2017-12-25T02:38:28.254Z,11.93
2017-12-25T02:39:08.996Z,11.82
2017-12-25T02:39:49.262Z,11.98
2017-12-25T02:40:30.209Z,11.94
2017-12-25T02:41:10.546Z,12.07
2017-12-25T02:41:51.147Z,12.11
2017-12-25T02:42:31.514Z,12.13
2017-12-25T02:43:11.914Z,12.12
2017-12-25T02:43:52.333Z,12.11
2017-12-25T02:44:33.766Z,12.04
2017-12-25T02:45:14.112Z,12.13
2017-12-25T02:45:54.638Z,11.96
2017-12-25T02:46:35.193Z,12.05
2017-12-25T02:47:15.530Z,12.11
2017-12-25T02:47:55.943Z,12.18
2017-12-25T02:48:36.401Z,12.12
2017-12-25T02:49:16.749Z,12.11
2017-12-25T02:49:57.128Z,12.12
2017-12-25T02:50:37.537Z,12.08
2017-12-25T02:51:18.077Z,12.07
2017-12-25T02:51:58.437Z,11.98
2017-12-25T02:52:38.800Z,12.08
2017-12-25T02:53:19.231Z,12.04
2017-12-25T02:53:59.583Z,11.98
2017-12-25T02:54:40.039Z,12.04
2017-12-25T02:55:20.439Z,12.04
2017-12-25T02:56:01.304Z,12.15
2017-12-25T02:56:41.313Z,11.97
2017-12-25T02:57:21.959Z,12.01
2017-12-25T02:58:02.343Z,11.97
2017-12-25T02:58:43.377Z,11.9
2017-12-25T02:59:23.618Z,11.84
2017-12-25T03:00:04.044Z,11.78
2017-12-25T03:00:44.687Z,11.74
2017-12-25T03:01:24.978Z,11.84
2017-12-25T03:02:05.498Z,11.82
2017-12-25T03:02:45.804Z,11.85
2017-12-25T03:03:26.258Z,11.88
2017-12-25T03:05:03.568Z,11.98
2017-12-25T03:05:44.537Z,11.94
2017-12-25T03:06:24.840Z,11.9
2017-12-25T03:07:05.231Z,12
2017-12-25T03:07:45.671Z,12
2017-12-25T03:08:25.972Z,12.12
2017-12-25T03:09:06.624Z,12.03
2017-12-25T03:09:46.957Z,12.16
2017-12-25T03:10:27.729Z,12.12
2017-12-25T03:11:08.145Z,11.98
2017-12-25T03:11:50.223Z,11.94
2017-12-25T03:12:30.539Z,12.01
2017-12-25T03:13:11.322Z,11.88
2017-12-25T03:13:51.632Z,11.98
2017-12-25T03:14:32.085Z,12.01
2017-12-25T03:15:12.435Z,11.94
2017-12-25T03:15:52.792Z,11.94
2017-12-25T03:16:33.277Z,11.87
2017-12-25T03:17:13.645Z,11.88
2017-12-25T03:17:54.047Z,11.84
2017-12-25T03:18:35.772Z,11.93
2017-12-25T03:19:16.034Z,11.94
2017-12-25T03:19:56.516Z,11.98
2017-12-25T03:20:37.358Z,11.96
2017-12-25T03:21:19.194Z,11.9
2017-12-25T03:21:59.247Z,11.9
2017-12-25T03:22:39.773Z,11.93
2017-12-25T03:23:20.293Z,11.96
2017-12-25T03:24:00.632Z,11.85
2017-12-25T03:24:41.047Z,11.84
2017-12-25T03:25:21.752Z,11.81
2017-12-25T03:26:02.163Z,11.72
2017-12-25T03:26:42.582Z,11.75
2017-12-25T03:27:23.716Z,11.77
2017-12-25T03:28:04.862Z,11.62
2017-12-25T03:28:45.298Z,11.7
2017-12-25T03:29:25.787Z,11.49
2017-12-25T03:30:06.201Z,11.46
2017-12-25T03:30:46.662Z,11.39
2017-12-25T03:31:27.057Z,11.46
2017-12-25T03:32:07.489Z,11.53
2017-12-25T03:32:47.944Z,11.59
2017-12-25T03:33:28.465Z,11.45
2017-12-25T03:34:08.840Z,11.44
2017-12-25T03:34:49.203Z,11.45
2017-12-25T03:35:29.652Z,11.51
2017-12-25T03:36:10.480Z,11.63
2017-12-25T03:36:50.873Z,11.66
2017-12-25T03:37:31.304Z,11.6
2017-12-25T03:38:11.841Z,11.6
2017-12-25T03:38:52.546Z,11.59
2017-12-25T03:39:32.964Z,11.62
2017-12-25T03:40:13.352Z,11.67
2017-12-25T03:40:54.020Z,11.66
2017-12-25T03:41:35.200Z,11.6
2017-12-25T03:42:14.836Z,11.66
2017-12-25T03:42:55.203Z,11.66
2017-12-25T03:43:35.655Z,11.62
2017-12-25T03:44:16.018Z,11.64
2017-12-25T03:44:56.468Z,11.63
2017-12-25T03:45:36.837Z,11.74
2017-12-25T03:46:17.596Z,11.64
2017-12-25T03:46:57.807Z,11.66
2017-12-25T03:47:38.183Z,11.66
2017-12-25T03:48:18.524Z,11.67
2017-12-25T03:48:58.934Z,11.62
2017-12-25T03:49:39.450Z,11.57
2017-12-25T03:50:19.756Z,11.62
2017-12-25T03:51:00.202Z,11.62
2017-12-25T03:51:40.652Z,11.62
2017-12-25T03:52:20.964Z,11.6
2017-12-25T03:53:01.370Z,11.51
2017-12-25T03:53:41.790Z,11.59
2017-12-25T03:54:22.205Z,11.45
2017-12-25T03:55:02.668Z,11.49
2017-12-25T03:55:43.031Z,11.48
2017-12-25T03:56:23.451Z,11.53
2017-12-25T03:57:03.873Z,11.49
2017-12-25T03:57:44.187Z,11.57
2017-12-25T03:58:24.623Z,11.42
2017-12-25T03:59:05.073Z,11.39
2017-12-25T03:59:45.515Z,11.44
2017-12-25T04:00:25.908Z,11.48
2017-12-25T04:01:06.266Z,11.41
2017-12-25T04:01:47.134Z,11.36
2017-12-25T04:41:43.224Z,10.46
2017-12-25T04:42:23.794Z,10.42
2017-12-25T04:43:04.180Z,10.32
2017-12-25T04:43:44.482Z,10.32
2017-12-25T04:44:24.886Z,10.42
2017-12-25T04:45:05.338Z,10.54
2017-12-25T04:45:45.807Z,10.49
2017-12-25T04:46:26.217Z,10.46
2017-12-25T04:47:06.533Z,10.44
2017-12-25T04:47:46.912Z,10.44
2017-12-25T04:48:27.380Z,10.52
2017-12-25T04:49:08.346Z,10.57
2017-12-25T04:49:48.879Z,10.57
2017-12-25T04:50:29.494Z,10.68
2017-12-25T04:51:09.767Z,10.65
2017-12-25T04:51:50.322Z,10.76
2017-12-25T04:52:30.737Z,10.8
2017-12-25T04:53:11.059Z,10.83
2017-12-25T04:53:51.549Z,10.87
2017-12-25T04:54:32.081Z,10.93
2017-12-25T04:55:12.399Z,10.9
2017-12-25T04:55:52.815Z,10.84
2017-12-25T04:56:33.479Z,10.95
2017-12-25T04:57:14.218Z,10.99
2017-12-25T04:57:54.680Z,11.12
2017-12-25T04:58:35.076Z,11.09
2017-12-25T04:59:15.603Z,11.06
2017-12-25T04:59:56.317Z,11.01
2017-12-25T05:00:36.852Z,11.09
2017-12-25T05:01:17.968Z,10.99
2017-12-25T05:01:59.168Z,11.06
2017-12-25T05:02:40.078Z,11.09
2017-12-25T05:03:20.502Z,11.01
2017-12-25T05:04:03.142Z,11.12
2017-12-25T05:04:43.541Z,11.19
2017-12-25T05:05:23.856Z,11.17
2017-12-25T05:06:04.676Z,11.28
2017-12-25T05:06:45.675Z,11.24
2017-12-25T05:07:26.118Z,11.26
2017-12-25T05:08:06.480Z,11.27
2017-12-25T05:08:46.924Z,11.35
2017-12-25T05:09:27.323Z,11.41
2017-12-25T05:10:07.713Z,11.44
2017-12-25T05:10:48.089Z,11.39
2017-12-25T05:11:28.778Z,11.39
2017-12-25T05:12:09.005Z,11.44
2017-12-25T05:12:49.342Z,11.59
2017-12-25T05:13:29.918Z,11.53
2017-12-25T05:14:10.266Z,11.56
2017-12-25T05:14:50.693Z,11.49
2017-12-25T05:15:31.156Z,11.45
2017-12-25T05:16:11.616Z,11.59
2017-12-25T05:16:52.119Z,11.64
2017-12-25T05:17:32.366Z,11.67
2017-12-25T05:18:12.781Z,11.69
2017-12-25T05:18:53.174Z,11.6
2017-12-25T05:19:33.747Z,11.63
2017-12-25T05:20:14.282Z,11.51
2017-12-25T05:20:54.710Z,11.48
2017-12-25T05:21:35.595Z,11.51
2017-12-25T05:22:16.116Z,11.35
2017-12-25T05:22:57.322Z,11.36
2017-12-25T05:23:38.174Z,11.35
2017-12-25T05:24:18.547Z,11.3
2017-12-25T05:24:59.115Z,11.35
2017-12-25T05:25:39.578Z,11.31
2017-12-25T05:26:20.004Z,11.53
2017-12-25T05:27:00.408Z,11.48
2017-12-25T05:27:40.965Z,11.51
2017-12-25T05:28:21.307Z,11.6
2017-12-25T05:29:01.771Z,11.59
2017-12-25T05:29:42.351Z,11.6
2017-12-25T05:30:22.562Z,11.66
2017-12-25T05:31:02.947Z,11.66
2017-12-25T05:31:43.430Z,11.59
2017-12-25T05:32:23.940Z,11.66
2017-12-25T05:33:04.163Z,11.7
2017-12-25T05:33:44.571Z,11.64
2017-12-25T05:34:24.992Z,11.66
2017-12-25T05:35:05.294Z,11.72
2017-12-25T05:35:46.082Z,11.72
2017-12-25T05:36:26.526Z,11.7
2017-12-25T05:37:06.916Z,11.79
2017-12-25T05:37:47.411Z,11.7
2017-12-25T05:38:27.688Z,11.66
2017-12-25T05:40:05.263Z,11.75
2017-12-25T05:40:46.179Z,11.7
2017-12-25T05:41:26.577Z,11.72
2017-12-25T05:42:07.075Z,11.74
2017-12-25T05:42:47.457Z,11.72
2017-12-25T05:43:27.797Z,11.63
2017-12-25T05:44:08.200Z,11.64
2017-12-25T05:44:48.814Z,11.62
2017-12-25T05:45:30.188Z,11.6
2017-12-25T05:46:10.598Z,11.57
2017-12-25T05:46:51.209Z,11.67
2017-12-25T05:47:31.432Z,11.69
2017-12-25T05:48:12.378Z,11.74
2017-12-25T05:48:53.192Z,11.74
2017-12-25T05:49:34.253Z,11.69
2017-12-25T05:50:14.955Z,11.64
2017-12-25T05:50:55.436Z,11.6
2017-12-25T05:51:36.013Z,11.45
2017-12-25T05:52:16.420Z,11.53
2017-12-25T05:52:56.849Z,11.48
2017-12-25T05:53:37.228Z,11.36
2017-12-25T05:54:18.147Z,11.42
2017-12-25T05:54:58.793Z,11.53
2017-12-25T05:55:39.652Z,11.46
2017-12-25T05:56:20.123Z,11.46
2017-12-25T05:57:01.889Z,11.53
2017-12-25T05:57:42.564Z,11.56
2017-12-25T05:58:24.153Z,11.42
2017-12-25T05:59:04.605Z,11.39
2017-12-25T05:59:45.344Z,11.41
2017-12-25T06:00:25.724Z,11.36
2017-12-25T06:01:06.488Z,11.44
2017-12-25T06:01:46.643Z,11.36
2017-12-25T06:02:27.278Z,11.44
2017-12-25T06:03:08.567Z,11.53
2017-12-25T06:03:48.520Z,11.49
2017-12-25T06:04:28.927Z,11.54
2017-12-25T06:06:27.013Z,11.57
2017-12-25T06:07:07.913Z,11.54
2017-12-25T06:07:48.195Z,11.56
2017-12-25T06:08:28.621Z,11.48
2017-12-25T06:09:09.351Z,11.56
2017-12-25T06:09:50.164Z,11.66
2017-12-25T06:10:31.477Z,11.62
2017-12-25T06:11:11.477Z,11.64
2017-12-25T06:11:51.921Z,11.62
2017-12-25T06:12:32.560Z,11.64
2017-12-25T06:13:12.911Z,11.62
2017-12-25T06:13:53.310Z,11.63
2017-12-25T06:14:33.787Z,11.6
2017-12-25T06:15:14.132Z,11.63
2017-12-25T06:15:54.484Z,11.66
2017-12-25T06:16:34.933Z,11.69
2017-12-25T06:17:15.400Z,11.66
2017-12-25T06:17:55.759Z,11.78
2017-12-25T06:18:36.127Z,11.79
2017-12-25T06:19:16.568Z,11.85
2017-12-25T06:19:56.907Z,11.88
2017-12-25T06:20:37.295Z,11.85
2017-12-25T06:21:17.659Z,11.84
2017-12-25T06:21:58.035Z,11.81
2017-12-25T06:22:38.412Z,11.87
2017-12-25T06:23:18.860Z,11.79
2017-12-25T06:23:59.851Z,11.77
2017-12-25T06:24:40.112Z,11.78
2017-12-25T06:25:20.485Z,11.6
2017-12-25T06:26:00.933Z,11.67
2017-12-25T06:26:41.368Z,11.67
2017-12-25T06:27:21.708Z,11.64
2017-12-25T06:28:02.146Z,11.64
2017-12-25T06:28:42.651Z,11.63
2017-12-25T06:29:22.970Z,11.63
2017-12-25T06:30:03.468Z,11.69
2017-12-25T06:30:43.858Z,11.69
2017-12-25T06:31:24.289Z,11.66
2017-12-25T06:32:04.912Z,11.59
2017-12-25T06:32:45.333Z,11.66
2017-12-25T06:33:26.457Z,11.77
2017-12-25T06:34:07.061Z,11.75
2017-12-25T06:34:47.446Z,11.72
2017-12-25T06:35:27.945Z,11.66
2017-12-25T06:36:08.303Z,11.72
2017-12-25T06:36:48.711Z,11.75
2017-12-25T06:37:29.824Z,11.81
2017-12-25T06:38:10.514Z,11.81
2017-12-25T06:38:50.908Z,11.82
2017-12-25T06:39:31.849Z,11.74
2017-12-25T06:40:12.682Z,11.74
2017-12-25T06:40:53.182Z,11.72
2017-12-25T06:41:33.858Z,11.75
2017-12-25T06:42:14.988Z,11.79
2017-12-25T06:42:55.329Z,11.72
2017-12-25T06:43:35.787Z,11.69
2017-12-25T06:44:16.366Z,11.67
2017-12-25T06:44:57.024Z,11.64
2017-12-25T06:45:37.428Z,11.75
2017-12-25T06:46:18.743Z,11.79
2017-12-25T06:46:58.863Z,11.75
2017-12-25T06:47:39.422Z,11.78
2017-12-25T06:48:19.825Z,11.72
2017-12-25T06:49:00.206Z,11.79
2017-12-25T06:49:40.635Z,11.72
2017-12-25T06:50:21.185Z,11.74
2017-12-25T06:51:02.466Z,11.7
2017-12-25T06:51:42.873Z,11.66
2017-12-25T06:52:23.263Z,11.63
2017-12-25T06:53:03.814Z,11.74
2017-12-25T06:53:44.158Z,11.64
2017-12-25T06:54:25.003Z,11.64
2017-12-25T06:55:06.937Z,11.62
2017-12-25T06:55:47.208Z,11.64
2017-12-25T06:56:27.934Z,11.67
2017-12-25T06:57:08.419Z,11.6
2017-12-25T06:57:48.774Z,11.7
2017-12-25T06:58:29.326Z,11.81
2017-12-25T06:59:09.615Z,11.75
2017-12-25T06:59:50.038Z,11.82
2017-12-25T07:00:30.456Z,11.82
2017-12-25T07:01:10.888Z,11.75
2017-12-25T07:01:51.357Z,11.72
2017-12-25T07:02:31.772Z,11.74
2017-12-25T07:03:12.152Z,11.67
2017-12-25T07:03:52.490Z,11.62
2017-12-25T07:04:32.894Z,11.69
2017-12-25T07:05:13.295Z,11.67
2017-12-25T07:05:53.704Z,11.69
2017-12-25T07:06:34.153Z,11.69
2017-12-25T07:07:14.520Z,11.64
2017-12-25T07:07:54.985Z,11.67
2017-12-25T07:08:35.310Z,11.62
2017-12-25T07:09:15.726Z,11.64
2017-12-25T07:09:56.067Z,11.6
2017-12-25T07:10:36.818Z,11.62
2017-12-25T07:11:17.269Z,11.62
2017-12-25T07:11:57.714Z,11.56
2017-12-25T07:12:38.035Z,11.62
2017-12-25T07:13:18.487Z,11.59
2017-12-25T07:14:00.591Z,11.54
2017-12-25T07:14:41.039Z,11.6
2017-12-25T07:15:21.379Z,11.62
2017-12-25T07:16:01.822Z,11.46
2017-12-25T07:16:42.273Z,11.59
2017-12-25T07:17:22.716Z,11.48
2017-12-25T07:18:03.151Z,11.48
2017-12-25T07:18:44.349Z,11.53
2017-12-25T07:19:25.111Z,11.45
2017-12-25T07:20:05.714Z,11.44
2017-12-25T07:20:46.322Z,11.51
2017-12-25T07:21:26.487Z,11.57
2017-12-25T07:22:06.956Z,11.51
2017-12-25T07:22:47.403Z,11.53
2017-12-25T07:23:28.305Z,11.53
2017-12-25T07:24:08.669Z,11.48
2017-12-25T07:24:49.037Z,11.53
2017-12-25T07:25:29.459Z,11.54
2017-12-25T07:26:09.883Z,11.51
2017-12-25T07:26:50.312Z,11.6
2017-12-25T07:27:30.892Z,11.59
2017-12-25T07:28:11.588Z,11.66
2017-12-25T07:28:52.810Z,11.6
2017-12-25T07:29:33.355Z,11.64
2017-12-25T07:30:13.801Z,11.62
2017-12-25T07:30:54.166Z,11.53
2017-12-25T07:31:34.537Z,11.57
2017-12-25T07:32:15.008Z,11.48
2017-12-25T07:32:55.340Z,11.51
2017-12-25T07:33:35.919Z,11.53
2017-12-25T07:34:16.209Z,11.51
2017-12-25T07:34:56.620Z,11.56
2017-12-25T07:35:37.262Z,11.42
2017-12-25T07:36:17.491Z,11.41
2017-12-25T07:36:58.228Z,11.35
2017-12-25T07:37:38.659Z,11.46
2017-12-25T07:38:19.088Z,11.51
2017-12-25T07:38:59.482Z,11.49
2017-12-25T07:39:39.878Z,11.49
2017-12-25T07:40:20.383Z,11.48
2017-12-25T07:41:00.980Z,11.46
2017-12-25T07:41:41.525Z,11.48
2017-12-25T07:42:21.948Z,11.54
2017-12-25T07:43:02.479Z,11.46
2017-12-25T07:43:42.910Z,11.49
2017-12-25T07:44:23.379Z,11.54
2017-12-25T07:45:04.091Z,11.51
2017-12-25T07:45:44.425Z,11.64
2017-12-25T07:46:24.800Z,11.53
2017-12-25T07:47:05.232Z,11.51
2017-12-25T07:47:45.716Z,11.45
2017-12-25T07:48:26.288Z,11.35
2017-12-25T07:49:07.038Z,11.36
2017-12-25T07:49:47.549Z,11.45
2017-12-25T07:50:28.859Z,11.33
2017-12-25T07:51:09.250Z,11.39
2017-12-25T07:51:49.884Z,11.38
2017-12-25T07:52:30.249Z,11.35
2017-12-25T07:53:11.625Z,11.27
2017-12-25T07:53:52.232Z,11.36
2017-12-25T07:54:32.620Z,11.33
2017-12-25T07:55:13.045Z,11.36
2017-12-25T07:55:53.944Z,11.31
2017-12-25T07:56:34.047Z,11.33
2017-12-25T07:57:14.452Z,11.51
2017-12-25T07:57:54.884Z,11.46
2017-12-25T07:58:35.229Z,11.53
2017-12-25T07:59:15.655Z,11.64
2017-12-25T07:59:56.061Z,11.54
2017-12-25T08:00:36.488Z,11.46
2017-12-25T08:02:37.194Z,11.33
2017-12-25T08:03:16.890Z,11.46
2017-12-25T08:03:57.538Z,11.36
2017-12-25T08:04:37.736Z,11.35
2017-12-25T08:05:18.133Z,11.49
2017-12-25T08:05:58.777Z,11.46
2017-12-25T08:06:39.104Z,11.45
2017-12-25T08:07:19.557Z,11.38
2017-12-25T08:08:00.446Z,11.39
2017-12-25T08:08:40.507Z,11.3
2017-12-25T08:09:20.925Z,11.35
2017-12-25T08:10:01.279Z,11.28
2017-12-25T08:10:41.689Z,11.21
2017-12-25T08:11:22.086Z,11.2
2017-12-25T08:12:02.549Z,11.24
2017-12-25T08:12:43.029Z,11.16
2017-12-25T08:13:23.353Z,11.21
2017-12-25T08:14:03.873Z,11.13
2017-12-25T08:14:44.293Z,11.13
2017-12-25T08:15:25.211Z,11.19
2017-12-25T08:16:05.165Z,11.11
2017-12-25T08:16:45.605Z,11.12
2017-12-25T08:17:26.042Z,11.19
2017-12-25T08:18:06.493Z,11.19
2017-12-25T08:18:46.955Z,11.38
2017-12-25T08:19:27.331Z,11.33
2017-12-25T08:20:07.967Z,11.36
2017-12-25T08:20:48.155Z,11.36
2017-12-25T08:21:28.592Z,11.35
2017-12-25T08:22:08.991Z,11.42
2017-12-25T08:22:49.365Z,11.41
2017-12-25T08:23:29.810Z,11.44
2017-12-25T08:24:10.222Z,11.51
2017-12-25T08:24:50.665Z,11.53
2017-12-25T08:25:31.022Z,11.51
2017-12-25T08:26:11.486Z,11.53
2017-12-25T08:26:51.856Z,11.54
2017-12-25T08:27:32.309Z,11.48
2017-12-25T08:28:12.742Z,11.45
2017-12-25T08:28:53.166Z,11.54
2017-12-25T08:29:33.642Z,11.38
2017-12-25T08:30:17.081Z,11.41
2017-12-25T08:30:58.135Z,11.3
2017-12-25T08:31:38.363Z,11.33
2017-12-25T08:33:35.420Z,11.36
2017-12-25T08:34:18.628Z,11.45
2017-12-25T08:35:00.481Z,11.42
2017-12-25T08:35:40.859Z,11.36
2017-12-25T08:36:21.565Z,11.35
2017-12-25T08:37:02.381Z,11.31
2017-12-25T08:37:42.778Z,11.38
2017-12-25T08:38:23.139Z,11.42
2017-12-25T08:39:03.574Z,11.48
2017-12-25T08:39:44.023Z,11.56
2017-12-25T08:40:24.344Z,11.48
2017-12-25T08:41:04.779Z,11.51
2017-12-25T08:41:45.641Z,11.62
2017-12-25T08:42:26.005Z,11.72
2017-12-25T08:43:06.304Z,11.66
2017-12-25T08:43:46.707Z,11.69
2017-12-25T08:44:27.114Z,11.74
2017-12-25T08:45:07.608Z,11.74
2017-12-25T08:45:47.987Z,11.77
2017-12-25T08:46:28.375Z,11.75
2017-12-25T08:47:08.764Z,11.75
2017-12-25T08:47:49.143Z,11.82
2017-12-25T08:48:29.543Z,11.84
2017-12-25T08:49:10.019Z,11.84
2017-12-25T08:49:50.422Z,11.81
2017-12-25T08:50:31.063Z,11.87
2017-12-25T08:51:11.346Z,11.93
2017-12-25T08:51:51.691Z,11.85
2017-12-25T08:52:32.100Z,11.75
2017-12-25T08:53:12.518Z,11.64
2017-12-25T08:53:52.914Z,11.53
2017-12-25T08:54:33.405Z,11.44
2017-12-25T08:55:13.744Z,11.33
2017-12-25T08:55:54.350Z,11.28
2017-12-25T08:56:34.614Z,11.2
2017-12-25T08:57:14.955Z,11.2
2017-12-25T08:57:55.356Z,11.12
2017-12-25T08:58:35.731Z,11.09
2017-12-25T08:59:16.162Z,10.95
2017-12-25T08:59:56.540Z,10.86
2017-12-25T09:00:36.951Z,10.88
2017-12-25T09:01:17.330Z,10.91
2017-12-25T09:01:57.771Z,10.8
2017-12-25T09:02:38.148Z,10.72
2017-12-25T09:03:18.541Z,10.72
2017-12-25T09:03:58.987Z,10.66
2017-12-25T09:04:39.355Z,10.55
2017-12-25T09:05:19.829Z,10.49
2017-12-25T09:06:00.181Z,10.44
2017-12-25T09:06:40.527Z,10.46
2017-12-25T09:07:20.901Z,10.42
2017-12-25T09:08:01.269Z,10.58
2017-12-25T09:08:41.677Z,10.51
2017-12-25T09:09:22.075Z,10.47
2017-12-25T09:10:02.567Z,10.47
2017-12-25T09:10:42.895Z,10.49
2017-12-25T09:11:23.346Z,10.49
2017-12-25T09:12:03.707Z,10.49
2017-12-25T09:12:44.124Z,10.47
2017-12-25T09:13:24.491Z,10.42
2017-12-25T09:14:04.900Z,10.39
2017-12-25T09:14:45.375Z,10.44
2017-12-25T09:15:25.720Z,10.39
2017-12-25T09:16:06.125Z,10.47
2017-12-25T09:16:46.525Z,10.47
2017-12-25T09:17:26.857Z,10.57
2017-12-25T09:18:07.223Z,10.44
2017-12-25T09:18:47.701Z,10.44
2017-12-25T09:19:28.095Z,10.35
2017-12-25T09:20:08.471Z,10.42
2017-12-25T09:20:48.863Z,10.46
2017-12-25T09:21:29.290Z,10.46
2017-12-25T09:22:09.684Z,10.46
2017-12-25T09:22:50.256Z,10.47
2017-12-25T09:23:30.479Z,10.46
2017-12-25T09:24:10.900Z,10.46
2017-12-25T09:24:51.367Z,10.54
2017-12-25T09:25:31.750Z,10.51
2017-12-25T09:26:12.127Z,10.58
2017-12-25T09:26:52.478Z,10.66
2017-12-25T09:27:32.934Z,10.66
2017-12-25T09:28:13.325Z,10.69
2017-12-25T09:28:53.710Z,10.68
2017-12-25T09:29:34.176Z,10.73
2017-12-25T09:30:14.558Z,10.65
2017-12-25T09:30:55.005Z,10.72
2017-12-25T09:31:35.377Z,10.7
2017-12-25T09:32:15.793Z,10.78
2017-12-25T09:32:56.231Z,10.81
2017-12-25T09:33:36.525Z,10.91
2017-12-25T09:34:16.931Z,10.95
2017-12-25T09:34:57.391Z,10.9
2017-12-25T09:35:38.124Z,10.88
2017-12-25T09:36:18.547Z,10.88
2017-12-25T09:36:59.013Z,10.88
2017-12-25T09:37:39.325Z,10.87
2017-12-25T09:38:19.774Z,10.84
2017-12-25T09:39:00.208Z,10.95
2017-12-25T09:39:40.551Z,10.98
2017-12-25T09:40:20.980Z,10.91
2017-12-25T09:41:01.375Z,10.87
2017-12-25T09:41:41.732Z,10.95
2017-12-25T09:42:22.108Z,10.95